Sunday, April 26, 2015, 8:10 PM EDT

KMUI, Muir Army Air Field / Indiantown

Location: Jonestown, PA, United States Lat: 40.433
Local Time: 8:10 PM EDT ( 0:10 GMT) Lon: -76.567
Time Zone: US/Eastern Elev: 488 ft

Show me the last for .
Show Decoded

2015-04-26 18:58 METAR KMUI 262258Z AUTO 02007KT 350V050 10SM CLR 14/M03 A2970 RMK AO2 SLP061
                 T01401028 $ =
2015-04-26 17:58 METAR KMUI 262158Z AUTO 04006KT 10SM FEW080 15/M03 A2969 RMK AO2 SLP057
                 T01521032 $ =
2015-04-26 16:58 METAR KMUI 262058Z AUTO 34008G17KT 10SM BKN075 16/M02 A2968 RMK AO2 SLP054
                 T01581023 57006 $ =
2015-04-26 15:58 METAR KMUI 261958Z AUTO 30008KT 10SM CLR 16/M03 A2968 RMK AO2 SLP054 T01571030 $
                 =
2015-04-26 14:58 METAR KMUI 261858Z AUTO 33007KT 10SM FEW070 15/M02 A2969 RMK AO2 SLP058
                 T01541018 $ =
2015-04-26 13:58 METAR KMUI 261758Z AUTO VRB04KT 10SM CLR 15/M02 A2969 RMK AO2 SLP058 T01471023
                 10151 20075 57011 $ =
2015-04-26 12:58 METAR KMUI 261658Z AUTO 32007KT 280V020 10SM CLR 14/M03 A2971 RMK AO2 SLP064
                 T01401026 $ =
2015-04-26 11:58 METAR KMUI 261558Z AUTO VRB05KT 10SM CLR 13/M03 A2972 RMK AO2 SLP068 T01291028 $
                 =
2015-04-26 10:58 METAR KMUI 261458Z AUTO VRB01KT 10SM CLR 12/M03 A2973 RMK AO2 SLP071 T01161028
                 51006 $ =
2015-04-26 09:58 METAR KMUI 261358Z AUTO 01006KT 10SM CLR 11/M03 A2973 RMK AO2 SLP071 T01111028 $
                 =
2015-04-26 08:58 METAR KMUI 261258Z AUTO 07006KT 10SM CLR 09/M02 A2973 RMK AO2 SLP071 T00881023 $
                 =
2015-04-26 07:58 METAR KMUI 261158Z AUTO 36010G17KT 10SM CLR 07/M03 A2971 RMK AO2 SLP065
                 T00741028 10074 20031 53003 $ =
2015-04-26 06:58 METAR KMUI 261058Z AUTO 36010G15KT 10SM CLR 06/M03 A2969 RMK AO2 SLP058
                 T00611034 $ =
2015-04-26 05:58 METAR KMUI 260958Z AUTO 36009G16KT 10SM CLR 06/M03 A2969 RMK AO2 SLP058
                 T00601033 $ =
2015-04-26 04:58 METAR KMUI 260858Z AUTO VRB02KT 10SM SCT160 SCT180 06/M03 A2970 RMK AO2 SLP061
                 T00581034 53003 $ =
2015-04-26 03:58 METAR KMUI 260758Z AUTO 36003KT 10SM SCT130 OVC180 05/M03 A2969 RMK AO2 SLP058
                 T00511028 $ =
2015-04-26 02:58 METAR KMUI 260658Z AUTO 02004KT 10SM BKN130 04/M03 A2969 RMK AO2 SLP058
                 T00391028 $ =
2015-04-26 01:58 METAR KMUI 260558Z AUTO 00000KT 10SM FEW200 05/M03 A2969 RMK AO2 SLP058
                 T00481032 10109 20041 57005 $ =
2015-04-26 00:58 METAR KMUI 260458Z AUTO VRB02KT 10SM CLR 08/M04 A2969 RMK AO2 SLP058 T00791043
                 401420008 $ =
2015-04-25 23:58 METAR KMUI 260358Z AUTO 07003KT 10SM CLR 06/M03 A2970 RMK AO2 SLP062 T00621030 $
                 =
2015-04-25 22:58 METAR KMUI 260258Z AUTO 21002KT 10SM CLR 07/M02 A2971 RMK AO2 SLP066 T00731025
                 55001 $ =
2015-04-25 21:58 METAR KMUI 260158Z AUTO 30001KT 10SM CLR 08/M02 A2971 RMK AO2 SLP066 T00801025 $
                 =
2015-04-25 20:58 METAR KMUI 260058Z AUTO 15002KT 10SM CLR 10/M04 A2971 RMK AO2 SLP065 T00981041 $
                 =

Support USWX by starting your Amazon purchase here.